CheckWX is a tool to help pilots better visualize weather data.  It is not intended as a substitute for an official pre-flight weather briefing.

17:42:04 UTC

KTME METAR
Houston Executive Airport
Houston, Texas, USA
Current

7 mins ago

KTME 091735Z AUTO 20014KT 9SM FEW040 FEW050 34/25 A2994 RMK AO2
Observed
Jul-9 @ 17:35 UTC
Wind
  • 200° at 14 KTS
Visibility
9 SM
Flight Rules
VFR
Cloud Levels
  • Few at 4,000' AGL
  • Few at 5,000' AGL
Temperature
34°C / 93°F
Dewpoint
25°C / 77°F
Humidity
59%
Altimeter
29.94" Hg
Pressure
1013.92 hPa
Previous

27 mins ago

KTME 091715Z AUTO 19014KT 9SM FEW037 SCT045 SCT050 34/25 A2994 RMK AO2
Observed
Jul-9 @ 17:15 UTC
Wind
  • 190° at 14 KTS
Visibility
9 SM
Flight Rules
VFR
Cloud Levels
  • Few at 3,700' AGL
  • Scattered at 4,500' AGL
  • Scattered at 5,000' AGL
Temperature
34°C / 93°F
Dewpoint
25°C / 77°F
Humidity
59%
Altimeter
29.94" Hg
Pressure
1013.92 hPa
Previous

47 mins ago

KTME 091655Z AUTO 20011G16KT 9SM FEW031 33/25 A2995 RMK AO2
Observed
Jul-9 @ 16:55 UTC
Wind
  • 200° at 11 KTS
  • Gusting to 16 KTS
Visibility
9 SM
Flight Rules
VFR
Cloud Levels
  • Few at 3,100' AGL
Temperature
33°C / 91°F
Dewpoint
25°C / 77°F
Humidity
63%
Altimeter
29.95" Hg
Pressure
1014.22 hPa